createdAt,value
2017-10-22T00:00:48.603Z,57.40
2017-10-22T00:01:53.361Z,58.10
2017-10-22T00:02:58.139Z,57.40
2017-10-22T00:04:02.973Z,57.40
2017-10-22T00:05:07.647Z,57.40
2017-10-22T00:06:12.437Z,57.40
2017-10-22T00:07:17.268Z,57.40
2017-10-22T00:08:21.948Z,57.40
2017-10-22T00:09:26.766Z,57.40
2017-10-22T00:10:31.440Z,57.40
2017-10-22T00:11:36.377Z,57.40
2017-10-22T00:12:41.241Z,57.40
2017-10-22T00:13:46.087Z,57.40
2017-10-22T00:14:50.920Z,57.40
2017-10-22T00:15:55.751Z,57.40
2017-10-22T00:17:00.590Z,57.40
2017-10-22T00:18:05.215Z,57.40
2017-10-22T00:19:10.163Z,57.50
2017-10-22T00:20:14.857Z,57.50
2017-10-22T00:21:19.820Z,57.50
2017-10-22T00:22:24.583Z,57.50
2017-10-22T00:23:29.229Z,57.60
2017-10-22T00:24:34.093Z,57.50
2017-10-22T00:25:39.051Z,57.50
2017-10-22T00:26:43.674Z,57.40
2017-10-22T00:27:48.348Z,57.50
2017-10-22T00:28:53.109Z,57.50
2017-10-22T00:29:57.928Z,57.40
2017-10-22T00:31:02.865Z,57.40
2017-10-22T00:32:07.803Z,57.60
2017-10-22T00:33:12.638Z,57.50
2017-10-22T00:34:17.664Z,57.50
2017-10-22T00:35:22.438Z,57.40
2017-10-22T00:36:27.096Z,57.40
2017-10-22T00:37:31.947Z,57.40
2017-10-22T00:38:36.734Z,57.50
2017-10-22T00:39:41.438Z,57.50
2017-10-22T00:40:46.308Z,57.50
2017-10-22T00:41:51.295Z,57.40
2017-10-22T00:42:56.298Z,57.40
2017-10-22T00:44:01.026Z,57.30
2017-10-22T00:45:05.906Z,57.40
2017-10-22T00:46:10.752Z,57.40
2017-10-22T00:47:15.763Z,57.40
2017-10-22T00:48:20.753Z,57.30
2017-10-22T00:49:26.417Z,57.30
2017-10-22T00:50:31.291Z,57.30
2017-10-22T00:51:36.022Z,57.30
2017-10-22T00:52:40.856Z,57.30
2017-10-22T00:53:45.825Z,57.40
2017-10-22T00:54:50.695Z,57.30
2017-10-22T00:55:55.507Z,57.30
2017-10-22T00:57:00.282Z,57.30
2017-10-22T00:58:05.088Z,57.30
2017-10-22T00:59:10.112Z,57.40
2017-10-22T01:00:14.979Z,57.30
2017-10-22T01:01:19.753Z,57.40
2017-10-22T01:02:24.429Z,57.40
2017-10-22T01:03:29.153Z,57.30
2017-10-22T01:04:34.212Z,57.40
2017-10-22T01:05:38.893Z,57.40
2017-10-22T01:06:43.963Z,57.40
2017-10-22T01:07:48.813Z,57.30
2017-10-22T01:08:53.783Z,57.30
2017-10-22T01:09:58.633Z,57.40
2017-10-22T01:11:03.417Z,57.40
2017-10-22T01:12:08.208Z,57.30
2017-10-22T01:13:13.255Z,57.30
2017-10-22T01:14:18.333Z,57.30
2017-10-22T01:15:23.152Z,57.30
2017-10-22T01:16:27.807Z,57.20
2017-10-22T01:17:32.738Z,57.30
2017-10-22T01:18:37.519Z,57.30
2017-10-22T01:19:42.255Z,57.30
2017-10-22T01:20:46.929Z,57.20
2017-10-22T01:21:51.723Z,57.20
2017-10-22T01:22:56.374Z,57.20
2017-10-22T01:24:01.181Z,57.20
2017-10-22T01:25:05.994Z,57.20
2017-10-22T01:26:10.836Z,57.10
2017-10-22T01:27:15.751Z,57.10
2017-10-22T01:28:20.675Z,57.20
2017-10-22T01:29:25.458Z,57.20
2017-10-22T01:30:30.101Z,57.10
2017-10-22T01:31:34.878Z,57.10
2017-10-22T01:32:39.694Z,57.10
2017-10-22T01:33:44.647Z,57.20
2017-10-22T01:34:49.436Z,57.10
2017-10-22T01:35:54.094Z,57.10
2017-10-22T01:36:58.743Z,57.10
2017-10-22T01:38:03.679Z,57.10
2017-10-22T01:39:08.453Z,57.10
2017-10-22T01:40:13.332Z,57.10
2017-10-22T01:41:17.962Z,57.10
2017-10-22T01:42:22.853Z,57.20
2017-10-22T01:43:27.618Z,57.10
2017-10-22T01:44:32.318Z,57.10
2017-10-22T01:45:36.948Z,57.10
2017-10-22T01:46:41.863Z,57.10
2017-10-22T01:47:46.632Z,57.10
2017-10-22T01:48:51.336Z,57.10
2017-10-22T01:49:56.170Z,57.10
2017-10-22T01:51:00.988Z,57.10
2017-10-22T01:52:05.907Z,57.10
2017-10-22T01:53:10.730Z,57.10
2017-10-22T01:54:15.636Z,57.10
2017-10-22T01:55:20.324Z,57.10
2017-10-22T01:56:25.338Z,57.10
2017-10-22T01:57:30.272Z,57.20
2017-10-22T01:58:34.974Z,57.10
2017-10-22T01:59:39.801Z,57.10
2017-10-22T02:00:44.720Z,57.10
2017-10-22T02:01:49.389Z,57.20
2017-10-22T02:02:54.093Z,57.10
2017-10-22T02:03:58.988Z,57.10
2017-10-22T02:05:03.664Z,57.10
2017-10-22T02:06:08.421Z,57.10
2017-10-22T02:07:13.416Z,57.10
2017-10-22T02:08:18.165Z,57.10
2017-10-22T02:09:23.093Z,57.00
2017-10-22T02:10:27.993Z,57.00
2017-10-22T02:11:32.736Z,57.00
2017-10-22T02:12:37.548Z,57.10
2017-10-22T02:13:42.418Z,57.10
2017-10-22T02:14:47.213Z,57.10
2017-10-22T02:15:52.144Z,57.10
2017-10-22T02:16:57.068Z,57.10
2017-10-22T02:18:01.821Z,57.00
2017-10-22T02:19:06.594Z,57.00
2017-10-22T02:20:11.449Z,57.00
2017-10-22T02:21:16.347Z,57.00
2017-10-22T02:22:21.358Z,56.90
2017-10-22T02:23:26.088Z,56.90
2017-10-22T02:24:31.001Z,56.90
2017-10-22T02:25:36.027Z,57.00
2017-10-22T02:26:40.799Z,57.00
2017-10-22T02:27:45.534Z,57.00
2017-10-22T02:28:50.225Z,57.00
2017-10-22T02:29:55.044Z,57.00
2017-10-22T02:30:59.771Z,57.00
2017-10-22T02:32:04.488Z,57.00
2017-10-22T02:33:09.427Z,57.00
2017-10-22T02:34:14.287Z,57.00
2017-10-22T02:35:19.097Z,56.90
2017-10-22T02:36:23.907Z,56.90
2017-10-22T02:37:28.900Z,56.90
2017-10-22T02:38:33.580Z,56.90
2017-10-22T02:39:38.416Z,57.00
2017-10-22T02:40:43.258Z,57.00
2017-10-22T02:41:48.173Z,56.90
2017-10-22T02:42:53.122Z,56.90
2017-10-22T02:43:57.939Z,56.90
2017-10-22T02:45:02.737Z,56.90
2017-10-22T02:46:07.545Z,56.90
2017-10-22T02:47:12.374Z,56.90
2017-10-22T02:48:17.062Z,56.80
2017-10-22T02:49:21.987Z,56.90
2017-10-22T02:50:26.816Z,56.90
2017-10-22T02:51:31.636Z,56.80
2017-10-22T02:52:36.473Z,56.80
2017-10-22T02:53:41.363Z,56.80
2017-10-22T02:54:46.183Z,56.80
2017-10-22T02:55:50.860Z,56.80
2017-10-22T02:56:55.695Z,56.80
2017-10-22T02:58:00.576Z,56.80
2017-10-22T02:59:05.215Z,57.30
2017-10-22T03:00:10.245Z,56.70
2017-10-22T03:01:15.045Z,56.70
2017-10-22T03:02:19.720Z,56.70
2017-10-22T03:03:24.399Z,56.60
2017-10-22T03:04:29.183Z,56.70
2017-10-22T03:05:34.208Z,56.60
2017-10-22T03:06:38.941Z,56.60
2017-10-22T03:07:43.715Z,56.70
2017-10-22T03:08:48.670Z,56.60
2017-10-22T03:09:53.590Z,56.70
2017-10-22T03:10:58.525Z,56.60
2017-10-22T03:12:03.391Z,56.60
2017-10-22T03:13:08.326Z,56.60
2017-10-22T03:14:13.144Z,56.60
2017-10-22T03:15:18.484Z,56.50
2017-10-22T03:16:23.576Z,56.50
2017-10-22T03:17:28.389Z,56.60
2017-10-22T03:18:33.288Z,57.10
2017-10-22T03:19:38.061Z,56.60
2017-10-22T03:20:42.772Z,56.40
2017-10-22T03:21:47.788Z,56.60
2017-10-22T03:22:52.889Z,56.50
2017-10-22T03:23:58.121Z,56.40
2017-10-22T03:25:03.430Z,56.50
2017-10-22T03:26:08.535Z,56.50
2017-10-22T03:27:13.668Z,56.50
2017-10-22T03:28:18.959Z,56.40
2017-10-22T03:29:23.984Z,56.50
2017-10-22T03:30:29.009Z,56.40
2017-10-22T03:31:35.483Z,57.00
2017-10-22T03:32:40.663Z,56.30
2017-10-22T03:33:45.714Z,56.30
2017-10-22T03:34:50.929Z,56.20
2017-10-22T03:35:56.230Z,56.20
2017-10-22T03:37:01.535Z,56.20
2017-10-22T03:38:06.502Z,56.20
2017-10-22T03:39:11.497Z,56.20
2017-10-22T03:40:16.484Z,56.20
2017-10-22T03:41:21.366Z,56.10
2017-10-22T03:42:26.581Z,56.20
2017-10-22T03:43:31.779Z,56.10
2017-10-22T03:44:36.910Z,56.00
2017-10-22T03:45:42.188Z,56.10
2017-10-22T03:46:47.191Z,56.10
2017-10-22T03:47:52.350Z,56.10
2017-10-22T03:48:57.235Z,56.10
2017-10-22T03:50:02.644Z,56.10
2017-10-22T03:51:07.696Z,56.00
2017-10-22T03:52:13.055Z,55.90
2017-10-22T03:53:18.042Z,56.00
2017-10-22T03:54:23.123Z,56.00
2017-10-22T03:55:28.378Z,56.00
2017-10-22T03:56:33.323Z,56.00
2017-10-22T03:57:38.644Z,56.00
2017-10-22T03:58:43.919Z,55.90
2017-10-22T03:59:49.046Z,56.00
2017-10-22T04:00:54.187Z,55.90
2017-10-22T04:01:59.429Z,55.90
2017-10-22T04:03:04.573Z,55.90
2017-10-22T04:04:09.945Z,55.90
2017-10-22T04:05:15.055Z,55.80
2017-10-22T04:06:20.670Z,55.80
2017-10-22T04:07:25.814Z,55.70
2017-10-22T04:08:31.029Z,55.80
2017-10-22T04:09:37.925Z,55.80
2017-10-22T04:10:43.067Z,55.80
2017-10-22T04:11:48.206Z,55.80
2017-10-22T04:12:53.314Z,55.70
2017-10-22T04:13:58.240Z,55.90
2017-10-22T04:15:03.505Z,55.70
2017-10-22T04:16:08.878Z,55.70
2017-10-22T04:17:14.037Z,55.70
2017-10-22T04:18:18.921Z,55.70
2017-10-22T04:19:24.166Z,55.60
2017-10-22T04:20:29.226Z,55.70
2017-10-22T04:21:34.292Z,55.70
2017-10-22T04:22:39.343Z,55.60
2017-10-22T04:23:45.235Z,55.60
2017-10-22T04:24:50.590Z,55.60
2017-10-22T04:25:55.731Z,55.70
2017-10-22T04:27:01.180Z,55.70
2017-10-22T04:28:06.296Z,55.60
2017-10-22T04:29:11.679Z,54.50
2017-10-22T04:30:17.065Z,53.80
2017-10-22T04:31:22.537Z,53.40
2017-10-22T04:32:27.813Z,53.40
2017-10-22T04:33:33.188Z,53.40
2017-10-22T04:34:38.588Z,53.30
2017-10-22T04:35:43.921Z,53.20
2017-10-22T04:36:49.075Z,53.20
2017-10-22T04:37:54.328Z,53.30
2017-10-22T04:39:00.013Z,53.20
2017-10-22T04:40:06.072Z,53.20
2017-10-22T04:41:11.498Z,53.20
2017-10-22T04:42:16.669Z,53.20
2017-10-22T04:43:22.500Z,53.20
2017-10-22T04:44:27.904Z,53.20
2017-10-22T04:45:33.046Z,53.20
2017-10-22T04:46:38.251Z,53.20
2017-10-22T04:47:43.883Z,53.10
2017-10-22T04:48:49.143Z,53.10
2017-10-22T04:49:54.256Z,53.10
2017-10-22T04:51:00.293Z,53.10
2017-10-22T04:52:05.498Z,53.10
2017-10-22T04:53:10.850Z,53.10
2017-10-22T04:54:16.110Z,53.00
2017-10-22T04:55:21.547Z,53.00
2017-10-22T04:56:26.822Z,53.10
2017-10-22T04:57:32.114Z,53.10
2017-10-22T04:58:37.843Z,53.10
2017-10-22T04:59:43.671Z,53.10
2017-10-22T05:00:48.944Z,53.10
2017-10-22T05:01:54.223Z,53.10
2017-10-22T05:02:59.605Z,53.10
2017-10-22T05:04:05.021Z,53.00
2017-10-22T05:05:10.378Z,53.10
2017-10-22T05:06:15.898Z,52.90
2017-10-22T05:07:21.309Z,53.00
2017-10-22T05:08:26.445Z,53.00
2017-10-22T05:09:31.826Z,52.90
2017-10-22T05:10:37.104Z,52.90
2017-10-22T05:11:42.426Z,52.90
2017-10-22T05:12:48.583Z,52.80
2017-10-22T05:13:54.104Z,52.90
2017-10-22T05:14:59.298Z,52.80
2017-10-22T05:16:04.876Z,52.80
2017-10-22T05:17:10.235Z,52.90
2017-10-22T05:18:15.713Z,52.90
2017-10-22T05:19:21.078Z,52.80
2017-10-22T05:20:26.393Z,52.80
2017-10-22T05:21:31.625Z,52.80
2017-10-22T05:22:36.572Z,52.80
2017-10-22T05:23:41.779Z,52.80
2017-10-22T05:24:47.015Z,52.80
2017-10-22T05:25:52.368Z,52.80
2017-10-22T05:26:59.100Z,52.80
2017-10-22T05:28:05.269Z,52.80
2017-10-22T05:29:10.863Z,52.80
2017-10-22T05:30:16.257Z,52.80
2017-10-22T05:31:21.627Z,52.70
2017-10-22T05:32:27.349Z,52.70
2017-10-22T05:33:32.556Z,52.70
2017-10-22T05:34:37.752Z,52.70
2017-10-22T05:35:44.062Z,52.70
2017-10-22T05:36:49.574Z,52.80
2017-10-22T05:37:55.009Z,53.00
2017-10-22T05:39:00.332Z,52.50
2017-10-22T05:40:05.703Z,51.80
2017-10-22T05:41:11.305Z,51.30
2017-10-22T05:42:17.891Z,50.90
2017-10-22T05:43:24.999Z,50.50
2017-10-22T05:44:30.650Z,50.20
2017-10-22T05:45:35.942Z,50.10
2017-10-22T05:46:41.251Z,50.00
2017-10-22T05:47:47.077Z,49.90
2017-10-22T05:48:52.291Z,49.80
2017-10-22T05:49:57.595Z,49.90
2017-10-22T05:51:02.867Z,49.70
2017-10-22T05:52:08.212Z,49.60
2017-10-22T05:53:13.692Z,49.50
2017-10-22T05:54:19.605Z,49.60
2017-10-22T05:55:24.954Z,49.70
2017-10-22T05:56:30.399Z,49.50
2017-10-22T05:57:35.870Z,49.60
2017-10-22T05:58:41.504Z,49.50
2017-10-22T05:59:47.013Z,49.70
2017-10-22T06:00:52.207Z,49.80
2017-10-22T06:01:57.800Z,49.60
2017-10-22T06:03:04.922Z,49.50
2017-10-22T06:04:10.283Z,49.40
2017-10-22T06:05:15.612Z,49.30
2017-10-22T06:06:21.292Z,49.30
2017-10-22T06:07:26.949Z,49.30
2017-10-22T06:08:32.246Z,49.30
2017-10-22T06:09:37.647Z,49.40
2017-10-22T06:10:42.874Z,49.40
2017-10-22T06:11:48.193Z,49.30
2017-10-22T06:12:53.368Z,49.20
2017-10-22T06:13:58.725Z,49.20
2017-10-22T06:15:04.069Z,49.20
2017-10-22T06:16:09.366Z,49.20
2017-10-22T06:17:14.703Z,49.20
2017-10-22T06:18:20.154Z,49.20
2017-10-22T06:19:26.388Z,49.30
2017-10-22T06:20:31.747Z,49.30
2017-10-22T06:21:36.967Z,49.30
2017-10-22T06:22:42.512Z,49.30
2017-10-22T06:23:47.913Z,49.40
2017-10-22T06:24:54.434Z,49.20
2017-10-22T06:25:59.966Z,49.20
2017-10-22T06:27:05.393Z,49.20
2017-10-22T06:28:10.936Z,49.20
2017-10-22T06:29:16.285Z,49.20
2017-10-22T06:30:21.715Z,49.20
2017-10-22T06:31:27.217Z,49.30
2017-10-22T06:32:33.077Z,49.20
2017-10-22T06:33:38.305Z,49.30
2017-10-22T06:34:43.694Z,49.30
2017-10-22T06:35:49.248Z,49.20
2017-10-22T06:36:54.562Z,49.10
2017-10-22T06:37:59.980Z,49.20
2017-10-22T06:39:05.324Z,49.30
2017-10-22T06:40:10.723Z,49.40
2017-10-22T06:41:16.094Z,49.40
2017-10-22T06:42:21.234Z,49.60
2017-10-22T06:43:26.570Z,50.10
2017-10-22T06:44:31.863Z,50.20
2017-10-22T06:45:37.801Z,49.90
2017-10-22T06:46:43.195Z,49.80
2017-10-22T06:47:50.011Z,49.70
2017-10-22T06:48:56.341Z,49.60
2017-10-22T06:50:01.719Z,49.60
2017-10-22T06:51:08.112Z,49.60
2017-10-22T06:52:13.727Z,49.60
2017-10-22T06:53:18.941Z,49.60
2017-10-22T06:54:24.418Z,49.60
2017-10-22T06:55:29.666Z,49.50
2017-10-22T06:56:34.918Z,49.40
2017-10-22T06:57:40.300Z,49.40
2017-10-22T06:58:45.566Z,49.60
2017-10-22T06:59:51.283Z,49.70
2017-10-22T07:00:56.803Z,50.00
2017-10-22T07:02:02.736Z,50.20
2017-10-22T07:03:09.220Z,50.50
2017-10-22T07:04:24.380Z,50.70
2017-10-22T07:05:33.200Z,50.90
2017-10-22T07:06:38.723Z,51.10
2017-10-22T07:07:45.473Z,51.10
2017-10-22T07:08:56.051Z,51.20
2017-10-22T07:10:03.300Z,51.50
2017-10-22T07:11:14.567Z,51.60
2017-10-22T07:12:31.190Z,51.70
2017-10-22T07:13:38.563Z,51.90
2017-10-22T07:14:44.337Z,52.00
2017-10-22T07:15:49.914Z,52.10
2017-10-22T07:16:55.304Z,52.10
2017-10-22T07:18:01.104Z,52.20
2017-10-22T07:19:06.729Z,52.30
2017-10-22T07:20:12.235Z,52.40
2017-10-22T07:21:17.655Z,52.40
2017-10-22T07:22:23.224Z,52.50
2017-10-22T07:23:28.864Z,52.50
2017-10-22T07:24:34.501Z,52.60
2017-10-22T07:25:41.122Z,52.60
2017-10-22T07:26:46.744Z,52.80
2017-10-22T07:27:52.236Z,52.80
2017-10-22T07:28:58.527Z,52.90
2017-10-22T07:30:11.633Z,52.90
2017-10-22T07:31:18.359Z,53.00
2017-10-22T07:32:24.156Z,53.00
2017-10-22T07:33:29.775Z,53.00
2017-10-22T07:34:35.535Z,53.10
2017-10-22T07:35:41.276Z,53.20
2017-10-22T07:36:47.118Z,53.20
2017-10-22T07:37:52.670Z,53.20
2017-10-22T07:38:58.292Z,53.30
2017-10-22T07:40:04.656Z,53.40
2017-10-22T07:41:12.539Z,53.50
2017-10-22T07:42:17.875Z,53.50
2017-10-22T07:43:23.435Z,53.60
2017-10-22T07:44:28.893Z,53.60
2017-10-22T07:45:34.379Z,53.70
2017-10-22T07:46:39.814Z,53.70
2017-10-22T07:47:45.504Z,53.80
2017-10-22T07:48:50.885Z,53.70
2017-10-22T07:49:56.556Z,53.80
2017-10-22T07:51:02.287Z,53.90
2017-10-22T07:52:07.875Z,54.00
2017-10-22T07:53:13.330Z,54.50
2017-10-22T07:54:18.865Z,54.30
2017-10-22T07:55:24.352Z,54.20
2017-10-22T07:56:30.812Z,54.30
2017-10-22T07:57:35.967Z,54.30
2017-10-22T07:58:41.138Z,54.30
2017-10-22T07:59:46.574Z,54.40
2017-10-22T08:00:52.143Z,54.40
2017-10-22T08:01:57.514Z,54.40
2017-10-22T08:03:02.947Z,54.50
2017-10-22T08:04:08.257Z,54.70
2017-10-22T08:05:13.439Z,54.60
2017-10-22T08:06:18.612Z,54.60
2017-10-22T08:07:23.986Z,54.80
2017-10-22T08:08:29.538Z,54.90
2017-10-22T08:09:34.825Z,54.80
2017-10-22T08:10:40.708Z,54.90
2017-10-22T08:11:46.323Z,55.00
2017-10-22T08:12:51.713Z,55.00
2017-10-22T08:13:57.331Z,55.10
2017-10-22T08:15:03.048Z,55.30
2017-10-22T08:16:08.729Z,55.20
2017-10-22T08:17:15.024Z,55.20
2017-10-22T08:18:20.872Z,55.20
2017-10-22T08:19:26.394Z,55.30
2017-10-22T08:20:31.943Z,55.40
2017-10-22T08:21:37.376Z,55.50
2017-10-22T08:22:42.723Z,55.40
2017-10-22T08:23:48.323Z,55.90
2017-10-22T08:24:53.860Z,56.10
2017-10-22T08:26:00.418Z,55.40
2017-10-22T08:27:05.806Z,54.90
2017-10-22T08:28:11.274Z,54.90
2017-10-22T08:29:16.458Z,54.90
2017-10-22T08:30:22.802Z,55.10
2017-10-22T08:31:29.357Z,55.30
2017-10-22T08:32:35.380Z,55.20
2017-10-22T08:33:44.132Z,54.30
2017-10-22T08:34:50.388Z,53.70
2017-10-22T08:35:57.750Z,52.90
2017-10-22T08:37:04.746Z,52.30
2017-10-22T08:38:10.872Z,52.10
2017-10-22T08:39:17.972Z,51.90
2017-10-22T08:40:23.683Z,51.70
2017-10-22T08:41:30.044Z,51.30
2017-10-22T08:42:37.199Z,51.10
2017-10-22T08:48:00.544Z,51.40
2017-10-22T08:49:06.660Z,51.50
2017-10-22T08:50:12.474Z,51.80
2017-10-22T08:51:18.465Z,51.40
2017-10-22T08:52:24.106Z,51.20
2017-10-22T08:53:29.791Z,51.00
2017-10-22T08:54:37.727Z,50.80
2017-10-22T08:55:44.081Z,50.70
2017-10-22T08:56:50.607Z,50.60
2017-10-22T08:57:56.821Z,50.50
2017-10-22T08:59:03.729Z,50.20
2017-10-22T09:00:09.763Z,50.20
2017-10-22T09:01:16.312Z,50.30
2017-10-22T09:02:23.104Z,50.50
2017-10-22T09:03:29.992Z,51.00
2017-10-22T09:04:36.669Z,51.50
2017-10-22T09:05:45.566Z,51.80
2017-10-22T09:06:54.026Z,52.10
2017-10-22T09:07:59.421Z,52.90
2017-10-22T09:09:05.107Z,53.30
2017-10-22T09:10:10.991Z,53.20
2017-10-22T09:11:16.410Z,52.70
2017-10-22T09:12:21.918Z,52.00
2017-10-22T09:13:30.004Z,51.60
2017-10-22T09:14:36.327Z,51.20
2017-10-22T09:15:41.804Z,51.00
2017-10-22T09:16:47.533Z,51.10
2017-10-22T09:17:53.112Z,50.90
2017-10-22T09:18:59.235Z,50.90
2017-10-22T09:20:07.930Z,51.20
2017-10-22T09:21:14.503Z,51.50
2017-10-22T09:22:20.685Z,52.00
2017-10-22T09:23:28.465Z,52.60
2017-10-22T09:24:36.587Z,52.60
2017-10-22T09:25:42.894Z,52.40
2017-10-22T09:26:49.001Z,52.00
2017-10-22T09:27:55.156Z,52.30
2017-10-22T09:29:02.219Z,52.30
2017-10-22T09:30:12.778Z,52.30
2017-10-22T09:31:22.071Z,52.30
2017-10-22T09:32:30.181Z,51.90
2017-10-22T09:33:38.763Z,51.80
2017-10-22T09:34:48.750Z,52.20
2017-10-22T09:35:57.438Z,52.50
2017-10-22T09:37:10.376Z,52.00
2017-10-22T09:38:20.805Z,52.20
2017-10-22T09:39:29.527Z,52.50
2017-10-22T09:40:38.612Z,52.40
2017-10-22T09:41:46.826Z,52.30
2017-10-22T09:42:55.332Z,51.80
2017-10-22T09:44:03.861Z,51.50
2017-10-22T09:45:12.943Z,51.50
2017-10-22T09:46:21.462Z,51.70
2017-10-22T09:47:29.939Z,51.90
2017-10-22T09:48:38.871Z,51.80
2017-10-22T09:49:49.310Z,52.00
2017-10-22T09:50:58.015Z,52.20
2017-10-22T09:52:06.784Z,52.40
2017-10-22T09:53:19.593Z,52.60
2017-10-22T09:54:37.393Z,53.00
2017-10-22T09:56:02.185Z,53.80
2017-10-22T09:57:13.667Z,54.50
2017-10-22T09:58:33.327Z,54.90
2017-10-22T09:59:43.601Z,54.70
2017-10-22T10:00:54.353Z,54.60
2017-10-22T10:02:08.378Z,54.70
2017-10-22T10:03:17.816Z,54.80
2017-10-22T10:04:27.336Z,54.90
2017-10-22T10:05:36.309Z,54.90
2017-10-22T10:06:48.813Z,55.00
2017-10-22T10:07:57.980Z,55.00
2017-10-22T10:09:05.154Z,55.10
2017-10-22T10:10:14.180Z,55.20
2017-10-22T10:11:22.409Z,55.30
2017-10-22T10:12:30.299Z,55.30
2017-10-22T10:13:40.982Z,55.30
2017-10-22T10:14:48.801Z,55.40
2017-10-22T10:15:56.842Z,55.40
2017-10-22T10:17:05.062Z,55.40
2017-10-22T10:18:13.149Z,55.50
2017-10-22T10:19:22.804Z,55.60
2017-10-22T10:20:31.298Z,55.70
2017-10-22T10:21:38.396Z,55.80
2017-10-22T10:22:49.246Z,55.80
2017-10-22T10:23:56.415Z,55.80
2017-10-22T10:25:18.033Z,55.80
2017-10-22T10:26:08.444Z,55.80
2017-10-22T10:27:16.584Z,55.80
2017-10-22T10:28:34.765Z,55.80
2017-10-22T10:29:45.369Z,55.90
2017-10-22T10:30:57.506Z,56.00
2017-10-22T10:32:09.495Z,55.80
2017-10-22T10:33:20.004Z,55.80
2017-10-22T10:34:32.321Z,55.80
2017-10-22T10:35:40.869Z,55.90
2017-10-22T10:36:53.554Z,55.90
2017-10-22T10:38:06.349Z,55.90
2017-10-22T10:39:32.475Z,55.90
2017-10-22T10:40:42.338Z,55.90
2017-10-22T10:41:56.636Z,55.80
2017-10-22T10:43:04.507Z,56.00
2017-10-22T10:44:12.097Z,55.90
2017-10-22T10:45:18.138Z,55.90
2017-10-22T10:46:23.925Z,55.90
2017-10-22T10:47:29.218Z,56.00
2017-10-22T10:48:34.643Z,56.00
2017-10-22T10:49:40.160Z,55.90
2017-10-22T10:50:45.593Z,55.80
2017-10-22T10:51:50.996Z,55.80
2017-10-22T10:52:56.576Z,55.60
2017-10-22T10:54:01.638Z,55.30
2017-10-22T10:55:06.780Z,54.70
2017-10-22T10:56:12.279Z,55.00
2017-10-22T10:57:17.384Z,51.80
2017-10-22T10:58:23.993Z,50.70
2017-10-22T10:59:29.328Z,50.40
2017-10-22T11:00:35.010Z,50.50
2017-10-22T11:01:40.656Z,51.30
2017-10-22T11:02:50.355Z,52.30
2017-10-22T11:03:57.463Z,50.60
2017-10-22T11:05:02.841Z,49.20
2017-10-22T11:06:08.174Z,49.00
2017-10-22T11:07:13.388Z,49.20
2017-10-22T11:08:18.678Z,49.40
2017-10-22T11:09:24.134Z,49.50
2017-10-22T11:10:29.281Z,50.00
2017-10-22T11:11:34.630Z,50.40
2017-10-22T11:12:39.946Z,50.90
2017-10-22T11:13:45.202Z,51.70
2017-10-22T11:14:51.458Z,52.00
2017-10-22T11:15:56.937Z,52.20
2017-10-22T11:17:02.311Z,52.30
2017-10-22T11:18:07.496Z,52.40
2017-10-22T11:19:12.873Z,52.50
2017-10-22T11:20:18.265Z,52.70
2017-10-22T11:21:23.678Z,52.70
2017-10-22T11:22:29.792Z,52.90
2017-10-22T11:23:36.307Z,52.20
2017-10-22T11:24:42.429Z,50.50
2017-10-22T11:25:48.181Z,50.60
2017-10-22T11:26:53.798Z,51.00
2017-10-22T11:27:59.324Z,51.30
2017-10-22T11:29:04.731Z,52.10
2017-10-22T11:30:10.653Z,52.70
2017-10-22T11:31:16.006Z,53.00
2017-10-22T11:32:21.039Z,53.10
2017-10-22T11:33:26.400Z,53.10
2017-10-22T11:34:32.217Z,51.90
2017-10-22T11:35:37.633Z,51.10
2017-10-22T11:36:42.775Z,50.80
2017-10-22T11:37:47.933Z,50.70
2017-10-22T11:38:53.288Z,50.80
2017-10-22T11:39:58.419Z,50.80
2017-10-22T11:41:03.647Z,50.90
2017-10-22T11:42:08.788Z,51.00
2017-10-22T11:43:14.294Z,51.20
2017-10-22T11:44:20.705Z,51.60
2017-10-22T11:45:25.779Z,51.60
2017-10-22T11:46:30.974Z,51.80
2017-10-22T11:47:36.629Z,52.10
2017-10-22T11:48:42.586Z,52.50
2017-10-22T11:49:47.809Z,52.70
2017-10-22T11:50:53.946Z,52.80
2017-10-22T11:51:58.866Z,52.90
2017-10-22T11:53:03.852Z,53.00
2017-10-22T11:54:08.774Z,53.10
2017-10-22T11:55:14.484Z,53.20
2017-10-22T11:56:19.711Z,53.20
2017-10-22T11:57:25.386Z,53.20
2017-10-22T11:58:30.448Z,53.20
2017-10-22T11:59:35.604Z,53.20
2017-10-22T12:00:41.192Z,53.10
2017-10-22T12:01:46.483Z,53.20
2017-10-22T12:02:51.667Z,53.30
2017-10-22T12:03:56.881Z,53.30
2017-10-22T12:05:02.622Z,53.30
2017-10-22T12:06:07.802Z,53.30
2017-10-22T12:07:13.039Z,53.30
2017-10-22T12:08:18.329Z,53.30
2017-10-22T12:09:24.233Z,53.40
2017-10-22T12:10:29.473Z,53.30
2017-10-22T12:11:34.645Z,53.30
2017-10-22T12:12:39.700Z,54.00
2017-10-22T12:13:45.257Z,53.30
2017-10-22T12:14:50.320Z,53.40
2017-10-22T12:15:55.785Z,53.30
2017-10-22T12:17:00.791Z,53.40
2017-10-22T12:18:05.947Z,53.40
2017-10-22T12:19:10.944Z,53.50
2017-10-22T12:20:16.700Z,53.40
2017-10-22T12:21:22.052Z,53.50
2017-10-22T12:22:26.899Z,53.50
2017-10-22T12:23:32.648Z,53.60
2017-10-22T12:24:37.723Z,53.70
2017-10-22T12:25:42.718Z,53.90
2017-10-22T12:26:47.757Z,53.90
2017-10-22T12:27:52.896Z,54.10
2017-10-22T12:28:58.047Z,54.30
2017-10-22T12:30:03.134Z,54.40
2017-10-22T12:31:08.138Z,54.40
2017-10-22T12:32:13.186Z,54.40
2017-10-22T12:33:18.323Z,54.30
2017-10-22T12:34:23.553Z,54.40
2017-10-22T12:35:28.734Z,54.50
2017-10-22T12:36:33.878Z,54.50
2017-10-22T12:37:39.296Z,54.70
2017-10-22T12:38:44.356Z,55.00
2017-10-22T12:39:49.554Z,55.00
2017-10-22T12:40:54.589Z,55.10
2017-10-22T12:41:59.671Z,55.10
2017-10-22T12:43:04.897Z,55.20
2017-10-22T12:44:09.960Z,55.20
2017-10-22T12:45:15.136Z,55.30
2017-10-22T12:46:20.333Z,55.40
2017-10-22T12:47:25.598Z,55.40
2017-10-22T12:48:31.022Z,55.60
2017-10-22T12:49:36.541Z,55.60
2017-10-22T12:50:41.943Z,55.60
2017-10-22T12:51:47.765Z,55.60
2017-10-22T12:52:53.260Z,55.60
2017-10-22T12:53:59.322Z,55.60
2017-10-22T12:55:04.576Z,55.60
2017-10-22T12:56:09.925Z,55.60
2017-10-22T12:57:15.060Z,55.60
2017-10-22T12:58:20.302Z,55.60
2017-10-22T12:59:25.414Z,55.60
2017-10-22T13:00:31.050Z,55.60
2017-10-22T13:01:36.186Z,55.70
2017-10-22T13:02:41.388Z,55.70
2017-10-22T13:03:46.521Z,55.80
2017-10-22T13:04:51.671Z,55.80
2017-10-22T13:05:56.877Z,55.90
2017-10-22T13:07:02.047Z,55.90
2017-10-22T13:08:07.377Z,55.90
2017-10-22T13:09:12.555Z,56.00
2017-10-22T13:10:17.748Z,56.00
2017-10-22T13:11:22.813Z,56.10
2017-10-22T13:12:28.443Z,56.10
2017-10-22T13:13:33.762Z,56.10
2017-10-22T13:14:38.837Z,56.10
2017-10-22T13:15:44.079Z,56.10
2017-10-22T13:16:49.039Z,56.10
2017-10-22T13:17:54.109Z,56.20
2017-10-22T13:18:59.041Z,56.20
2017-10-22T13:20:04.004Z,56.20
2017-10-22T13:21:09.027Z,56.20
2017-10-22T13:22:14.024Z,56.30
2017-10-22T13:23:18.986Z,56.20
2017-10-22T13:24:23.911Z,56.30
2017-10-22T13:25:29.148Z,56.30
2017-10-22T13:26:34.052Z,56.30
2017-10-22T13:27:39.164Z,56.30
2017-10-22T13:28:44.204Z,56.30
2017-10-22T13:29:49.301Z,56.40
2017-10-22T13:30:54.485Z,56.40
2017-10-22T13:32:01.560Z,56.50
2017-10-22T13:33:06.516Z,56.60
2017-10-22T13:34:11.532Z,56.80
2017-10-22T13:35:16.670Z,57.00
2017-10-22T13:36:21.900Z,57.10
2017-10-22T13:37:26.956Z,57.20
2017-10-22T13:38:31.874Z,57.10
2017-10-22T13:39:36.777Z,57.20
2017-10-22T13:40:41.928Z,57.30
2017-10-22T13:41:47.176Z,57.30
2017-10-22T13:42:52.130Z,57.30
2017-10-22T13:43:57.238Z,57.30
2017-10-22T13:45:02.204Z,57.30
2017-10-22T13:46:07.538Z,57.30
2017-10-22T13:47:12.586Z,57.30
2017-10-22T13:48:17.513Z,57.30
2017-10-22T13:49:22.642Z,57.40
2017-10-22T13:50:27.574Z,57.40
2017-10-22T13:51:32.556Z,57.40
2017-10-22T13:52:37.553Z,57.40
2017-10-22T13:53:42.582Z,57.40
2017-10-22T13:54:47.646Z,57.40
2017-10-22T13:55:52.853Z,57.50
2017-10-22T13:56:57.785Z,57.50
2017-10-22T13:58:02.942Z,57.50
2017-10-22T13:59:08.039Z,57.50
2017-10-22T14:00:12.951Z,57.50
2017-10-22T14:01:18.255Z,57.50
2017-10-22T14:02:23.330Z,57.50
2017-10-22T14:03:28.502Z,57.50
2017-10-22T14:04:33.769Z,57.30
2017-10-22T14:05:39.002Z,57.30
2017-10-22T14:06:44.273Z,57.20
2017-10-22T14:07:49.428Z,57.10
2017-10-22T14:08:54.689Z,57.10
2017-10-22T14:09:59.913Z,57.30
2017-10-22T14:11:05.099Z,57.50
2017-10-22T14:12:10.083Z,57.50